Aeroporto :
LOGIN :

Iscrizione | Disclaimer

   EN    FR    IT 

 










Sommario :    VFR   VFR Marginale   IFR   IFR Intensivo   IFR Molto Intensivo
Visibilità : 
Base nubi : 
>= 8 km
>= 3000ft
5 / 8 km
1000 / 3000 ft
1500m / 5 km
500 / 1000 ft
800 / 1500m
200 / 500 ft
< 800m
< 200 ft
Simboli :   Temporali  Nebbia  Neve Forte  Precipitazioni Forti  Vento > 20 kt
SIGMETs :   Varie  Temporali  Ghiacco  Turbolenza  Onda orograficha  Ceneri Vulcaniche






- Altitudine del aeroporto : -11 ft
- Codice IATA : AMS


EHAM - Amsterdam Schiphol

ULTIMO METAR :
  • 131625Z VRB04KT CAVOK 23/10 Q1026 NOSIG

METARs OBSOLETI :
  • 131555Z VRB02KT CAVOK 23/11 Q1026 NOSIG
  • 131525Z VRB04KT CAVOK 23/10 Q1026 NOSIG
  • 131455Z 29002KT CAVOK 23/11 Q1027 NOSIG
  • 131425Z VRB04KT CAVOK 23/12 Q1027 NOSIG
  • 131355Z 28003KT 190V350 CAVOK 22/11 Q1027 NOSIG
  • 131325Z 27004KT 200V340 9999 FEW040 22/11 Q1027 NOSIG

TAF TAF EHAM
Valido dal 13 a 12 ore il 14 a 18 ore UTC


131118Z 1312/1418 29005KT CAVOK
BECMG 1403/1406 18007KT
BECMG 1415/1418 33006KT



MetMap, La meteo Aeronautica in un colpo d'occhio ! - Copyright ORBIFLY Dicembre 2007 - Disclaimer

ORBIFLY MET'MAP TEAM :

Programmazione e sviluppo : Alexandra Zaïnal
Concezione : Baudouin d'Aumeries
Aiuto per la programmazione : Marc-Olivier Méhu
Supporto tecnico e logistico : Manuel Goepfert
Aiuto per la traduzione : Arnaldo La Scala

Contatto : metmap@orbifly.com




FONTI E CREDITI :

   NOAA